Flight Track Log - Related Links

Times and Time Zones

All times are in EDT time to prevent confusion due to time zone crossing. See the UAL4380 flight status page for this flight to view local times or setup timezone preferences in your user account.

Time Position Orientation Groundspeed Altitude Reporting Facility
EDT Latitude Longitude Course Direction KTS MPH feet Rate Location/Type
Thu 12:12:17 PM 29.9817 -95.3556 357° North 156 180 600  Level Houston Center
Thu 12:12:55 PM 30.0092 -95.3572 357° North 177 204 1,900 1,886 Climbing Houston Center
Thu 12:14:02 PM 30.0756 -95.3492 North 238 274 3,900 1,279 Climbing Houston Center
Thu 12:14:57 PM 30.1339 -95.3419 North 247 284 4,500 1,810 Climbing Houston Center
Thu 12:15:58 PM 30.2028 -95.3628 345° North 237 273 7,400 2,284 Climbing Houston Center
Thu 12:17:11 PM 30.2719 -95.3881 342° North 246 283 9,600 1,422 Climbing Houston Center
Thu 12:18:13 PM 30.3469 -95.4147 343° North 281 323 10,600 1,016 Climbing Houston Center
Thu 12:19:15 PM 30.4531 -95.4497 344° North 327 376 11,700 1,258 Climbing Houston Center
Thu 12:20:17 PM 30.5483 -95.4792 345° North 351 404 13,200 1,355 Climbing Houston Center
Thu 12:21:19 PM 30.6461 -95.5003 349° North 355 409 14,500 1,258 Climbing Houston Center
Thu 12:22:21 PM 30.7611 -95.5264 349° North 367 422 15,800 1,258 Climbing Houston Center
Thu 12:23:23 PM 30.8631 -95.5494 349° North 370 426 17,100 1,210 Climbing Houston Center
Thu 12:24:25 PM 30.9711 -95.5739 349° North 386 444 18,300 1,161 Climbing Houston Center
Thu 12:25:27 PM 31.0808 -95.5989 349° North 396 456 19,500 823 Climbing Houston Center
Thu 12:26:29 PM 31.1947 -95.6247 349° North 410 472 20,000 300 Climbing Houston Center
Thu 12:27:07 PM 31.2825 -95.6461 348° North 421 484 20,000  Level Fort Worth Center
Thu 12:28:07 PM 31.3997 -95.6708 350° North 426 490 20,000  Level Fort Worth Center
Thu 12:29:07 PM 31.5169 -95.6978 349° North 433 498 20,000  Level Fort Worth Center
Thu 12:30:07 PM 31.6219 -95.7447 339° North 407 468 20,000 -300 Level Fort Worth Center
Thu 12:31:07 PM 31.7125 -95.7967 334° Northwest 401 461 19,400 -1,150 Descending Fort Worth Center
Thu 12:32:07 PM 31.8031 -95.8611 329° Northwest 388 447 17,700 -1,800 Descending Fort Worth Center
Thu 12:33:07 PM 31.8936 -95.9453 322° Northwest 383 441 15,800 -1,650 Descending Fort Worth Center
Thu 12:34:07 PM 31.9592 -96.0078 321° Northwest 361 415 14,400 -1,550 Descending Fort Worth Center
Thu 12:35:07 PM 32.0372 -96.0825 321° Northwest 341 392 12,700 -1,650 Descending Fort Worth Center
Thu 12:36:07 PM 32.1089 -96.1478 322° Northwest 330 380 11,100 -1,350 Descending Fort Worth Center
Thu 12:37:07 PM 32.1764 -96.2108 322° Northwest 324 373 10,000 -550 Descending Fort Worth Center
Thu 12:38:07 PM 32.2456 -96.2539 332° Northwest 310 357 10,000 -200 Level Fort Worth Center
Thu 12:39:07 PM 32.3169 -96.2972 333° Northwest 279 321 9,600 -500 Descending Fort Worth Center
Thu 12:40:07 PM 32.3758 -96.3358 331° Northwest 261 300 9,000 -650 Descending Fort Worth Center
Thu 12:41:07 PM 32.4450 -96.3744 335° Northwest 254 292 8,300 -850 Descending Fort Worth Center
Thu 12:42:07 PM 32.4892 -96.4258 316° Northwest 247 284 7,300 -1,000 Descending Fort Worth Center
Thu 12:43:07 PM 32.5419 -96.4892 315° West 247 284 6,300 -1,000 Descending Fort Worth Center
Thu 12:44:07 PM 32.5842 -96.5431 313° West 247 284 5,300 -650 Descending Fort Worth Center
Thu 12:45:07 PM 32.6325 -96.6019 314° West 236 272 5,000 -200 Descending Fort Worth Center
Thu 12:46:07 PM 32.6786 -96.6533 317° Northwest 236 272 4,900  Descending Fort Worth Center
Thu 12:46:52 PM 32.7167 -96.7000 314° West 240 276 5,000 -595 Climbing Dallas / Fort Worth TRACON
Thu 12:47:58 PM 32.7833 -96.6833 12° North 212 244 3,800 -762 Descending Dallas / Fort Worth TRACON
Thu 12:48:58 PM 32.8000 -96.7167 301° West 187 215 3,400 -400 Descending Dallas / Fort Worth TRACON

Login

Don't have an account? Register now (free) for customized features, flight alerts, and more!